sensor_id;sensor_type;location;lat;lon;timestamp;P1;durP1;ratioP1;P2;durP2;ratioP2
3177;SDS011;38141;42.666;23.344;2024-03-06T00:01:44;39.83;;;23.87;;
3177;SDS011;38141;42.666;23.344;2024-03-06T00:04:11;41.53;;;25.07;;
3177;SDS011;38141;42.666;23.344;2024-03-06T00:06:38;35.73;;;23.23;;
3177;SDS011;38141;42.666;23.344;2024-03-06T00:09:07;34.40;;;21.07;;
3177;SDS011;38141;42.666;23.344;2024-03-06T00:11:34;34.93;;;21.73;;
3177;SDS011;38141;42.666;23.344;2024-03-06T00:14:02;35.43;;;21.03;;
3177;SDS011;38141;42.666;23.344;2024-03-06T00:16:30;33.63;;;20.50;;
3177;SDS011;38141;42.666;23.344;2024-03-06T00:18:57;35.17;;;20.60;;
3177;SDS011;38141;42.666;23.344;2024-03-06T00:21:24;31.67;;;20.60;;
3177;SDS011;38141;42.666;23.344;2024-03-06T00:23:51;31.43;;;19.23;;
3177;SDS011;38141;42.666;23.344;2024-03-06T00:26:20;33.73;;;20.20;;
3177;SDS011;38141;42.666;23.344;2024-03-06T00:28:47;34.30;;;19.93;;
3177;SDS011;38141;42.666;23.344;2024-03-06T00:31:14;33.20;;;21.10;;
3177;SDS011;38141;42.666;23.344;2024-03-06T00:33:41;30.07;;;19.13;;
3177;SDS011;38141;42.666;23.344;2024-03-06T00:36:08;30.00;;;19.60;;
3177;SDS011;38141;42.666;23.344;2024-03-06T00:38:35;32.67;;;19.30;;
3177;SDS011;38141;42.666;23.344;2024-03-06T00:41:02;29.00;;;18.07;;
3177;SDS011;38141;42.666;23.344;2024-03-06T00:43:31;31.50;;;18.53;;
3177;SDS011;38141;42.666;23.344;2024-03-06T00:45:58;28.97;;;18.70;;
3177;SDS011;38141;42.666;23.344;2024-03-06T00:48:25;34.70;;;19.90;;
3177;SDS011;38141;42.666;23.344;2024-03-06T00:50:52;39.67;;;19.70;;
3177;SDS011;38141;42.666;23.344;2024-03-06T00:53:19;35.50;;;20.40;;
3177;SDS011;38141;42.666;23.344;2024-03-06T00:55:47;33.00;;;21.00;;
3177;SDS011;38141;42.666;23.344;2024-03-06T00:58:14;37.33;;;20.37;;
3177;SDS011;38141;42.666;23.344;2024-03-06T01:00:43;30.93;;;19.23;;
3177;SDS011;38141;42.666;23.344;2024-03-06T01:03:09;37.30;;;20.60;;
3177;SDS011;38141;42.666;23.344;2024-03-06T01:05:36;30.80;;;19.23;;
3177;SDS011;38141;42.666;23.344;2024-03-06T01:08:04;35.37;;;19.47;;
3177;SDS011;38141;42.666;23.344;2024-03-06T01:10:31;32.63;;;19.03;;
3177;SDS011;38141;42.666;23.344;2024-03-06T01:12:58;38.70;;;21.07;;
3177;SDS011;38141;42.666;23.344;2024-03-06T01:15:25;31.80;;;19.03;;
3177;SDS011;38141;42.666;23.344;2024-03-06T01:17:54;31.63;;;19.00;;
3177;SDS011;38141;42.666;23.344;2024-03-06T01:20:22;37.33;;;19.63;;
3177;SDS011;38141;42.666;23.344;2024-03-06T01:22:49;34.90;;;21.33;;
3177;SDS011;38141;42.666;23.344;2024-03-06T01:25:17;37.70;;;21.10;;
3177;SDS011;38141;42.666;23.344;2024-03-06T01:27:44;38.10;;;21.00;;
3177;SDS011;38141;42.666;23.344;2024-03-06T01:30:11;32.90;;;20.10;;
3177;SDS011;38141;42.666;23.344;2024-03-06T01:32:38;39.33;;;20.37;;
3177;SDS011;38141;42.666;23.344;2024-03-06T01:35:07;37.23;;;21.23;;
3177;SDS011;38141;42.666;23.344;2024-03-06T01:37:34;38.27;;;21.83;;
3177;SDS011;38141;42.666;23.344;2024-03-06T01:40:01;38.23;;;21.90;;
3177;SDS011;38141;42.666;23.344;2024-03-06T01:42:29;33.60;;;20.40;;
3177;SDS011;38141;42.666;23.344;2024-03-06T01:44:57;40.13;;;21.37;;
3177;SDS011;38141;42.666;23.344;2024-03-06T01:47:24;42.07;;;22.20;;
3177;SDS011;38141;42.666;23.344;2024-03-06T01:49:51;37.50;;;21.73;;
3177;SDS011;38141;42.666;23.344;2024-03-06T01:52:19;37.90;;;21.37;;
3177;SDS011;38141;42.666;23.344;2024-03-06T01:54:48;37.20;;;19.67;;
3177;SDS011;38141;42.666;23.344;2024-03-06T01:57:17;34.80;;;19.87;;
3177;SDS011;38141;42.666;23.344;2024-03-06T01:59:46;40.40;;;21.43;;
3177;SDS011;38141;42.666;23.344;2024-03-06T02:02:13;39.50;;;22.13;;
3177;SDS011;38141;42.666;23.344;2024-03-06T02:04:41;38.90;;;21.40;;
3177;SDS011;38141;42.666;23.344;2024-03-06T02:07:08;84.73;;;45.30;;
3177;SDS011;38141;42.666;23.344;2024-03-06T02:09:38;53.27;;;25.20;;
3177;SDS011;38141;42.666;23.344;2024-03-06T02:12:05;80.23;;;43.97;;
3177;SDS011;38141;42.666;23.344;2024-03-06T02:14:33;36.80;;;21.07;;
3177;SDS011;38141;42.666;23.344;2024-03-06T02:17:01;37.27;;;20.50;;
3177;SDS011;38141;42.666;23.344;2024-03-06T02:19:37;37.27;;;20.67;;
3177;SDS011;38141;42.666;23.344;2024-03-06T02:22:06;36.97;;;19.40;;
3177;SDS011;38141;42.666;23.344;2024-03-06T02:24:35;31.03;;;19.33;;
3177;SDS011;38141;42.666;23.344;2024-03-06T02:27:02;32.03;;;19.27;;
3177;SDS011;38141;42.666;23.344;2024-03-06T02:29:30;37.17;;;19.97;;
3177;SDS011;38141;42.666;23.344;2024-03-06T02:31:58;39.47;;;20.20;;
3177;SDS011;38141;42.666;23.344;2024-03-06T02:34:27;34.00;;;20.43;;
3177;SDS011;38141;42.666;23.344;2024-03-06T02:36:55;32.97;;;20.00;;
3177;SDS011;38141;42.666;23.344;2024-03-06T02:39:24;33.67;;;19.67;;
3177;SDS011;38141;42.666;23.344;2024-03-06T02:41:51;33.73;;;20.63;;
3177;SDS011;38141;42.666;23.344;2024-03-06T02:44:18;34.30;;;19.77;;
3177;SDS011;38141;42.666;23.344;2024-03-06T02:46:46;42.13;;;22.83;;
3177;SDS011;38141;42.666;23.344;2024-03-06T02:49:14;32.40;;;18.97;;
3177;SDS011;38141;42.666;23.344;2024-03-06T02:51:41;39.43;;;21.47;;
3177;SDS011;38141;42.666;23.344;2024-03-06T02:54:08;34.23;;;19.90;;
3177;SDS011;38141;42.666;23.344;2024-03-06T02:56:37;32.90;;;19.63;;
3177;SDS011;38141;42.666;23.344;2024-03-06T02:59:04;35.07;;;20.43;;
3177;SDS011;38141;42.666;23.344;2024-03-06T03:01:31;38.77;;;20.87;;
3177;SDS011;38141;42.666;23.344;2024-03-06T03:03:58;36.07;;;21.27;;
3177;SDS011;38141;42.666;23.344;2024-03-06T03:06:25;41.57;;;21.30;;
3177;SDS011;38141;42.666;23.344;2024-03-06T03:08:52;40.57;;;22.03;;
3177;SDS011;38141;42.666;23.344;2024-03-06T03:11:19;39.90;;;21.10;;
3177;SDS011;38141;42.666;23.344;2024-03-06T03:13:48;40.50;;;22.30;;
3177;SDS011;38141;42.666;23.344;2024-03-06T03:16:15;38.50;;;21.37;;
3177;SDS011;38141;42.666;23.344;2024-03-06T03:18:43;38.70;;;21.10;;
3177;SDS011;38141;42.666;23.344;2024-03-06T03:21:10;35.20;;;21.00;;
3177;SDS011;38141;42.666;23.344;2024-03-06T03:23:38;35.87;;;19.93;;
3177;SDS011;38141;42.666;23.344;2024-03-06T03:26:05;37.07;;;20.90;;
3177;SDS011;38141;42.666;23.344;2024-03-06T03:28:32;33.80;;;20.33;;
3177;SDS011;38141;42.666;23.344;2024-03-06T03:31:01;33.83;;;20.30;;
3177;SDS011;38141;42.666;23.344;2024-03-06T03:33:28;37.27;;;21.60;;
3177;SDS011;38141;42.666;23.344;2024-03-06T03:35:55;38.97;;;21.50;;
3177;SDS011;38141;42.666;23.344;2024-03-06T03:38:22;35.43;;;20.47;;
3177;SDS011;38141;42.666;23.344;2024-03-06T03:40:49;36.20;;;22.33;;
3177;SDS011;38141;42.666;23.344;2024-03-06T03:43:16;38.07;;;21.83;;
3177;SDS011;38141;42.666;23.344;2024-03-06T03:45:44;36.13;;;20.27;;
3177;SDS011;38141;42.666;23.344;2024-03-06T03:48:13;41.30;;;21.80;;
3177;SDS011;38141;42.666;23.344;2024-03-06T03:50:40;38.33;;;19.77;;
3177;SDS011;38141;42.666;23.344;2024-03-06T03:53:07;39.67;;;21.43;;
3177;SDS011;38141;42.666;23.344;2024-03-06T03:55:34;42.03;;;23.10;;
3177;SDS011;38141;42.666;23.344;2024-03-06T03:58:01;41.63;;;22.20;;
3177;SDS011;38141;42.666;23.344;2024-03-06T04:00:28;38.53;;;20.57;;
3177;SDS011;38141;42.666;23.344;2024-03-06T04:02:55;38.73;;;21.00;;
3177;SDS011;38141;42.666;23.344;2024-03-06T04:05:24;36.03;;;20.63;;
3177;SDS011;38141;42.666;23.344;2024-03-06T04:07:52;34.60;;;20.53;;
3177;SDS011;38141;42.666;23.344;2024-03-06T04:10:19;36.87;;;20.20;;
3177;SDS011;38141;42.666;23.344;2024-03-06T04:12:46;38.07;;;20.90;;
3177;SDS011;38141;42.666;23.344;2024-03-06T04:15:13;40.37;;;20.83;;
3177;SDS011;38141;42.666;23.344;2024-03-06T04:17:40;35.43;;;19.80;;
3177;SDS011;38141;42.666;23.344;2024-03-06T04:20:07;38.00;;;20.37;;
3177;SDS011;38141;42.666;23.344;2024-03-06T04:22:38;39.30;;;21.60;;
3177;SDS011;38141;42.666;23.344;2024-03-06T04:25:05;35.97;;;20.00;;
3177;SDS011;38141;42.666;23.344;2024-03-06T04:27:33;34.47;;;20.47;;
3177;SDS011;38141;42.666;23.344;2024-03-06T04:30:00;35.83;;;20.13;;
3177;SDS011;38141;42.666;23.344;2024-03-06T04:32:27;34.87;;;20.60;;
3177;SDS011;38141;42.666;23.344;2024-03-06T04:34:54;38.30;;;22.03;;
3177;SDS011;38141;42.666;23.344;2024-03-06T04:37:21;39.60;;;21.30;;
3177;SDS011;38141;42.666;23.344;2024-03-06T04:39:50;38.10;;;21.83;;
3177;SDS011;38141;42.666;23.344;2024-03-06T04:42:17;40.10;;;22.00;;
3177;SDS011;38141;42.666;23.344;2024-03-06T04:44:45;42.37;;;21.87;;
3177;SDS011;38141;42.666;23.344;2024-03-06T04:47:12;42.10;;;22.10;;
3177;SDS011;38141;42.666;23.344;2024-03-06T04:49:39;41.47;;;21.13;;
3177;SDS011;38141;42.666;23.344;2024-03-06T04:52:06;38.23;;;21.87;;
3177;SDS011;38141;42.666;23.344;2024-03-06T04:54:34;38.33;;;21.17;;
3177;SDS011;38141;42.666;23.344;2024-03-06T04:57:03;41.63;;;22.20;;
3177;SDS011;38141;42.666;23.344;2024-03-06T04:59:30;41.23;;;21.00;;
3177;SDS011;38141;42.666;23.344;2024-03-06T05:01:57;47.30;;;20.47;;
3177;SDS011;38141;42.666;23.344;2024-03-06T05:04:24;41.57;;;21.37;;
3177;SDS011;38141;42.666;23.344;2024-03-06T05:07:44;40.17;;;22.20;;
3177;SDS011;38141;42.666;23.344;2024-03-06T05:10:11;36.30;;;21.17;;
3177;SDS011;38141;42.666;23.344;2024-03-06T05:12:38;41.23;;;20.33;;
3177;SDS011;38141;42.666;23.344;2024-03-06T05:15:05;36.70;;;20.90;;
3177;SDS011;38141;42.666;23.344;2024-03-06T05:17:33;45.20;;;24.37;;
3177;SDS011;38141;42.666;23.344;2024-03-06T05:20:00;38.93;;;20.43;;
3177;SDS011;38141;42.666;23.344;2024-03-06T05:22:28;36.67;;;20.73;;
3177;SDS011;38141;42.666;23.344;2024-03-06T05:24:57;42.13;;;20.93;;
3177;SDS011;38141;42.666;23.344;2024-03-06T05:27:24;44.03;;;20.40;;
3177;SDS011;38141;42.666;23.344;2024-03-06T05:29:51;32.67;;;19.53;;
3177;SDS011;38141;42.666;23.344;2024-03-06T05:32:18;35.80;;;19.90;;
3177;SDS011;38141;42.666;23.344;2024-03-06T05:34:45;42.70;;;19.90;;
3177;SDS011;38141;42.666;23.344;2024-03-06T05:37:13;39.53;;;19.50;;
3177;SDS011;38141;42.666;23.344;2024-03-06T05:39:39;45.73;;;21.30;;
3177;SDS011;38141;42.666;23.344;2024-03-06T05:42:09;40.40;;;20.60;;
3177;SDS011;38141;42.666;23.344;2024-03-06T05:44:36;42.53;;;20.07;;
3177;SDS011;38141;42.666;23.344;2024-03-06T05:47:03;42.13;;;22.07;;
3177;SDS011;38141;42.666;23.344;2024-03-06T05:49:32;39.73;;;21.23;;
3177;SDS011;38141;42.666;23.344;2024-03-06T05:51:59;45.80;;;21.07;;
3177;SDS011;38141;42.666;23.344;2024-03-06T05:54:27;38.10;;;20.40;;
3177;SDS011;38141;42.666;23.344;2024-03-06T05:56:58;40.40;;;22.77;;
3177;SDS011;38141;42.666;23.344;2024-03-06T05:59:27;42.10;;;23.47;;
3177;SDS011;38141;42.666;23.344;2024-03-06T06:01:54;40.30;;;22.17;;
3177;SDS011;38141;42.666;23.344;2024-03-06T06:04:21;41.87;;;21.07;;
3177;SDS011;38141;42.666;23.344;2024-03-06T06:06:48;42.97;;;23.17;;
3177;SDS011;38141;42.666;23.344;2024-03-06T06:09:15;39.37;;;22.63;;
3177;SDS011;38141;42.666;23.344;2024-03-06T06:11:43;44.73;;;22.60;;
3177;SDS011;38141;42.666;23.344;2024-03-06T06:14:10;46.63;;;23.07;;
3177;SDS011;38141;42.666;23.344;2024-03-06T06:16:39;41.33;;;23.17;;
3177;SDS011;38141;42.666;23.344;2024-03-06T06:19:07;41.40;;;23.80;;
3177;SDS011;38141;42.666;23.344;2024-03-06T06:21:34;44.90;;;22.93;;
3177;SDS011;38141;42.666;23.344;2024-03-06T06:24:02;37.87;;;20.07;;
3177;SDS011;38141;42.666;23.344;2024-03-06T06:26:30;36.37;;;20.80;;
3177;SDS011;38141;42.666;23.344;2024-03-06T06:28:57;50.47;;;20.40;;
3177;SDS011;38141;42.666;23.344;2024-03-06T06:31:24;39.33;;;21.33;;
3177;SDS011;38141;42.666;23.344;2024-03-06T06:33:53;30.63;;;19.00;;
3177;SDS011;38141;42.666;23.344;2024-03-06T06:36:20;42.03;;;19.43;;
3177;SDS011;38141;42.666;23.344;2024-03-06T06:38:47;32.90;;;20.63;;
3177;SDS011;38141;42.666;23.344;2024-03-06T06:41:15;35.97;;;20.80;;
3177;SDS011;38141;42.666;23.344;2024-03-06T06:43:44;34.57;;;20.10;;
3177;SDS011;38141;42.666;23.344;2024-03-06T06:46:11;37.63;;;22.53;;
3177;SDS011;38141;42.666;23.344;2024-03-06T06:48:38;39.00;;;23.47;;
3177;SDS011;38141;42.666;23.344;2024-03-06T06:51:06;40.53;;;24.80;;
3177;SDS011;38141;42.666;23.344;2024-03-06T06:53:33;45.03;;;24.67;;
3177;SDS011;38141;42.666;23.344;2024-03-06T06:56:00;38.23;;;25.43;;
3177;SDS011;38141;42.666;23.344;2024-03-06T06:58:27;44.83;;;25.90;;
3177;SDS011;38141;42.666;23.344;2024-03-06T07:00:55;40.63;;;25.90;;
3177;SDS011;38141;42.666;23.344;2024-03-06T07:03:21;49.53;;;26.57;;
3177;SDS011;38141;42.666;23.344;2024-03-06T07:05:54;43.33;;;25.97;;
3177;SDS011;38141;42.666;23.344;2024-03-06T07:08:23;46.03;;;26.17;;
3177;SDS011;38141;42.666;23.344;2024-03-06T07:10:50;41.77;;;24.90;;
3177;SDS011;38141;42.666;23.344;2024-03-06T07:13:20;39.90;;;24.97;;
3177;SDS011;38141;42.666;23.344;2024-03-06T07:15:47;41.47;;;25.07;;
3177;SDS011;38141;42.666;23.344;2024-03-06T07:18:14;36.83;;;23.47;;
3177;SDS011;38141;42.666;23.344;2024-03-06T07:20:41;38.67;;;23.57;;
3177;SDS011;38141;42.666;23.344;2024-03-06T07:23:08;43.20;;;24.83;;
3177;SDS011;38141;42.666;23.344;2024-03-06T07:25:36;34.43;;;23.00;;
3177;SDS011;38141;42.666;23.344;2024-03-06T07:28:03;39.40;;;23.10;;
3177;SDS011;38141;42.666;23.344;2024-03-06T07:30:30;38.03;;;24.07;;
3177;SDS011;38141;42.666;23.344;2024-03-06T07:32:57;41.73;;;24.37;;
3177;SDS011;38141;42.666;23.344;2024-03-06T07:35:24;34.17;;;22.77;;
3177;SDS011;38141;42.666;23.344;2024-03-06T07:37:51;39.73;;;24.90;;
3177;SDS011;38141;42.666;23.344;2024-03-06T07:40:18;35.03;;;23.07;;
3177;SDS011;38141;42.666;23.344;2024-03-06T07:42:47;42.30;;;23.50;;
3177;SDS011;38141;42.666;23.344;2024-03-06T07:45:14;34.53;;;23.33;;
3177;SDS011;38141;42.666;23.344;2024-03-06T07:47:41;34.63;;;23.10;;
3177;SDS011;38141;42.666;23.344;2024-03-06T07:50:09;35.90;;;24.00;;
3177;SDS011;38141;42.666;23.344;2024-03-06T07:52:37;39.23;;;21.87;;
3177;SDS011;38141;42.666;23.344;2024-03-06T07:55:05;38.10;;;23.30;;
3177;SDS011;38141;42.666;23.344;2024-03-06T07:57:32;37.93;;;22.20;;
3177;SDS011;38141;42.666;23.344;2024-03-06T08:00:01;42.47;;;22.17;;
3177;SDS011;38141;42.666;23.344;2024-03-06T08:02:33;32.50;;;22.03;;
3177;SDS011;38141;42.666;23.344;2024-03-06T08:05:03;38.07;;;23.93;;
3177;SDS011;38141;42.666;23.344;2024-03-06T08:07:30;35.53;;;22.70;;
3177;SDS011;38141;42.666;23.344;2024-03-06T08:09:57;42.13;;;21.80;;
3177;SDS011;38141;42.666;23.344;2024-03-06T08:12:24;40.93;;;23.43;;
3177;SDS011;38141;42.666;23.344;2024-03-06T08:14:51;40.93;;;23.50;;
3177;SDS011;38141;42.666;23.344;2024-03-06T08:17:21;34.83;;;22.20;;
3177;SDS011;38141;42.666;23.344;2024-03-06T08:19:47;32.57;;;22.13;;
3177;SDS011;38141;42.666;23.344;2024-03-06T08:22:14;32.50;;;21.30;;
3177;SDS011;38141;42.666;23.344;2024-03-06T08:24:41;33.53;;;20.93;;
3177;SDS011;38141;42.666;23.344;2024-03-06T08:27:08;35.07;;;21.50;;
3177;SDS011;38141;42.666;23.344;2024-03-06T08:29:35;36.60;;;22.00;;
3177;SDS011;38141;42.666;23.344;2024-03-06T08:32:02;38.13;;;22.07;;
3177;SDS011;38141;42.666;23.344;2024-03-06T08:34:31;29.70;;;21.50;;
3177;SDS011;38141;42.666;23.344;2024-03-06T08:36:58;37.17;;;22.90;;
3177;SDS011;38141;42.666;23.344;2024-03-06T08:39:25;32.03;;;22.00;;
3177;SDS011;38141;42.666;23.344;2024-03-06T08:41:52;32.78;;;23.10;;
3177;SDS011;38141;42.666;23.344;2024-03-06T08:44:21;38.47;;;22.45;;
3177;SDS011;38141;42.666;23.344;2024-03-06T08:46:47;34.92;;;22.65;;
3177;SDS011;38141;42.666;23.344;2024-03-06T08:49:14;34.00;;;21.27;;
3177;SDS011;38141;42.666;23.344;2024-03-06T08:51:43;30.58;;;21.05;;
3177;SDS011;38141;42.666;23.344;2024-03-06T08:54:11;28.85;;;20.50;;
3177;SDS011;38141;42.666;23.344;2024-03-06T08:56:38;31.48;;;21.15;;
3177;SDS011;38141;42.666;23.344;2024-03-06T08:59:04;25.58;;;19.58;;
3177;SDS011;38141;42.666;23.344;2024-03-06T09:01:31;30.50;;;18.42;;
3177;SDS011;38141;42.666;23.344;2024-03-06T09:03:58;24.85;;;18.05;;
3177;SDS011;38141;42.666;23.344;2024-03-06T09:06:25;26.25;;;17.90;;
3177;SDS011;38141;42.666;23.344;2024-03-06T09:08:55;25.30;;;18.45;;
3177;SDS011;38141;42.666;23.344;2024-03-06T09:11:22;27.27;;;17.30;;
3177;SDS011;38141;42.666;23.344;2024-03-06T09:13:49;27.60;;;18.38;;
3177;SDS011;38141;42.666;23.344;2024-03-06T09:16:16;27.05;;;18.70;;
3177;SDS011;38141;42.666;23.344;2024-03-06T09:18:43;23.52;;;17.33;;
3177;SDS011;38141;42.666;23.344;2024-03-06T09:21:10;24.20;;;17.58;;
3177;SDS011;38141;42.666;23.344;2024-03-06T09:23:37;20.27;;;15.70;;
3177;SDS011;38141;42.666;23.344;2024-03-06T09:26:06;23.33;;;15.15;;
3177;SDS011;38141;42.666;23.344;2024-03-06T09:28:32;18.48;;;13.48;;
3177;SDS011;38141;42.666;23.344;2024-03-06T09:30:59;13.63;;;11.18;;
3177;SDS011;38141;42.666;23.344;2024-03-06T09:33:26;14.38;;;10.55;;
3177;SDS011;38141;42.666;23.344;2024-03-06T09:35:53;13.80;;;11.25;;
3177;SDS011;38141;42.666;23.344;2024-03-06T09:38:22;15.82;;;10.18;;
3177;SDS011;38141;42.666;23.344;2024-03-06T09:40:49;15.43;;;11.90;;
3177;SDS011;38141;42.666;23.344;2024-03-06T09:43:18;15.13;;;10.77;;
3177;SDS011;38141;42.666;23.344;2024-03-06T09:45:45;15.35;;;11.00;;
3177;SDS011;38141;42.666;23.344;2024-03-06T09:48:17;17.95;;;12.52;;
3177;SDS011;38141;42.666;23.344;2024-03-06T09:50:47;17.17;;;11.45;;
3177;SDS011;38141;42.666;23.344;2024-03-06T09:53:17;16.50;;;10.63;;
3177;SDS011;38141;42.666;23.344;2024-03-06T09:55:47;12.52;;;9.88;;
3177;SDS011;38141;42.666;23.344;2024-03-06T09:58:15;15.23;;;8.38;;
3177;SDS011;38141;42.666;23.344;2024-03-06T10:00:44;15.45;;;9.77;;
3177;SDS011;38141;42.666;23.344;2024-03-06T10:03:13;17.85;;;10.90;;
3177;SDS011;38141;42.666;23.344;2024-03-06T10:05:40;15.30;;;9.18;;
3177;SDS011;38141;42.666;23.344;2024-03-06T10:08:08;18.05;;;10.05;;
3177;SDS011;38141;42.666;23.344;2024-03-06T10:10:35;13.98;;;10.88;;
3177;SDS011;38141;42.666;23.344;2024-03-06T10:13:03;18.58;;;10.98;;
3177;SDS011;38141;42.666;23.344;2024-03-06T10:15:32;15.05;;;11.13;;
3177;SDS011;38141;42.666;23.344;2024-03-06T10:18:12;12.38;;;9.75;;
3177;SDS011;38141;42.666;23.344;2024-03-06T10:20:43;21.55;;;15.55;;
3177;SDS011;38141;42.666;23.344;2024-03-06T10:23:10;17.23;;;12.65;;
3177;SDS011;38141;42.666;23.344;2024-03-06T10:25:37;17.85;;;10.18;;
3177;SDS011;38141;42.666;23.344;2024-03-06T10:28:05;13.43;;;9.80;;
3177;SDS011;38141;42.666;23.344;2024-03-06T10:30:33;13.80;;;9.85;;
3177;SDS011;38141;42.666;23.344;2024-03-06T10:33:01;10.32;;;8.75;;
3177;SDS011;38141;42.666;23.344;2024-03-06T10:35:31;16.25;;;9.52;;
3177;SDS011;38141;42.666;23.344;2024-03-06T10:37:58;10.32;;;8.40;;
3177;SDS011;38141;42.666;23.344;2024-03-06T10:40:28;14.10;;;8.02;;
3177;SDS011;38141;42.666;23.344;2024-03-06T10:42:58;9.00;;;7.78;;
3177;SDS011;38141;42.666;23.344;2024-03-06T10:45:34;13.00;;;8.82;;
3177;SDS011;38141;42.666;23.344;2024-03-06T10:48:08;12.57;;;8.82;;
3177;SDS011;38141;42.666;23.344;2024-03-06T10:50:38;14.02;;;8.40;;
3177;SDS011;38141;42.666;23.344;2024-03-06T10:53:09;15.90;;;8.30;;
3177;SDS011;38141;42.666;23.344;2024-03-06T10:55:36;14.23;;;7.22;;
3177;SDS011;38141;42.666;23.344;2024-03-06T10:58:04;11.50;;;8.05;;
3177;SDS011;38141;42.666;23.344;2024-03-06T11:00:35;13.82;;;9.05;;
3177;SDS011;38141;42.666;23.344;2024-03-06T11:03:05;15.27;;;8.57;;
3177;SDS011;38141;42.666;23.344;2024-03-06T11:05:35;15.65;;;9.18;;
3177;SDS011;38141;42.666;23.344;2024-03-06T11:08:06;12.15;;;8.23;;
3177;SDS011;38141;42.666;23.344;2024-03-06T11:10:35;14.02;;;9.02;;
3177;SDS011;38141;42.666;23.344;2024-03-06T11:13:03;13.68;;;7.97;;
3177;SDS011;38141;42.666;23.344;2024-03-06T11:15:35;17.98;;;8.20;;
3177;SDS011;38141;42.666;23.344;2024-03-06T11:24:14;10.88;;;7.45;;
3177;SDS011;38141;42.666;23.344;2024-03-06T11:26:46;12.30;;;7.47;;
3177;SDS011;38141;42.666;23.344;2024-03-06T11:29:17;15.68;;;8.65;;
3177;SDS011;38141;42.666;23.344;2024-03-06T11:32:02;8.63;;;6.78;;
3177;SDS011;38141;42.666;23.344;2024-03-06T11:34:33;11.57;;;7.80;;
3177;SDS011;38141;42.666;23.344;2024-03-06T11:37:03;10.50;;;7.88;;
3177;SDS011;38141;42.666;23.344;2024-03-06T11:39:39;10.57;;;7.60;;
3177;SDS011;38141;42.666;23.344;2024-03-06T11:42:10;10.88;;;7.20;;
3177;SDS011;38141;42.666;23.344;2024-03-06T11:44:51;11.02;;;7.70;;
3177;SDS011;38141;42.666;23.344;2024-03-06T11:47:20;14.40;;;8.52;;
3177;SDS011;38141;42.666;23.344;2024-03-06T11:49:48;11.63;;;7.43;;
3177;SDS011;38141;42.666;23.344;2024-03-06T11:52:18;10.75;;;6.60;;
3177;SDS011;38141;42.666;23.344;2024-03-06T11:54:47;13.00;;;7.70;;
3177;SDS011;38141;42.666;23.344;2024-03-06T11:57:14;8.05;;;7.00;;
3177;SDS011;38141;42.666;23.344;2024-03-06T11:59:45;9.25;;;7.15;;
3177;SDS011;38141;42.666;23.344;2024-03-06T12:02:13;9.38;;;7.10;;
3177;SDS011;38141;42.666;23.344;2024-03-06T12:04:43;9.95;;;7.07;;
3177;SDS011;38141;42.666;23.344;2024-03-06T12:07:10;12.77;;;7.28;;
3177;SDS011;38141;42.666;23.344;2024-03-06T12:09:38;10.25;;;7.22;;
3177;SDS011;38141;42.666;23.344;2024-03-06T12:12:07;10.88;;;8.20;;
3177;SDS011;38141;42.666;23.344;2024-03-06T12:14:35;10.55;;;7.97;;
3177;SDS011;38141;42.666;23.344;2024-03-06T12:17:05;15.35;;;8.77;;
3177;SDS011;38141;42.666;23.344;2024-03-06T12:19:33;12.95;;;7.90;;
3177;SDS011;38141;42.666;23.344;2024-03-06T12:22:01;14.48;;;8.63;;
3177;SDS011;38141;42.666;23.344;2024-03-06T12:24:30;14.33;;;8.90;;
3177;SDS011;38141;42.666;23.344;2024-03-06T12:27:00;12.05;;;8.70;;
3177;SDS011;38141;42.666;23.344;2024-03-06T12:29:31;13.25;;;8.50;;
3177;SDS011;38141;42.666;23.344;2024-03-06T12:31:59;13.73;;;8.37;;
3177;SDS011;38141;42.666;23.344;2024-03-06T12:34:31;12.90;;;8.97;;
3177;SDS011;38141;42.666;23.344;2024-03-06T12:37:07;11.33;;;8.20;;
3177;SDS011;38141;42.666;23.344;2024-03-06T12:39:35;12.07;;;8.50;;
3177;SDS011;38141;42.666;23.344;2024-03-06T12:42:03;12.90;;;9.53;;
3177;SDS011;38141;42.666;23.344;2024-03-06T12:44:33;12.17;;;8.57;;
3177;SDS011;38141;42.666;23.344;2024-03-06T12:47:00;13.40;;;8.33;;
3177;SDS011;38141;42.666;23.344;2024-03-06T12:49:27;10.63;;;7.57;;
3177;SDS011;38141;42.666;23.344;2024-03-06T12:51:55;15.40;;;7.60;;
3177;SDS011;38141;42.666;23.344;2024-03-06T12:54:22;11.23;;;7.50;;
3177;SDS011;38141;42.666;23.344;2024-03-06T12:56:50;12.50;;;7.70;;
3177;SDS011;38141;42.666;23.344;2024-03-06T12:59:18;12.63;;;7.90;;
3177;SDS011;38141;42.666;23.344;2024-03-06T13:01:47;15.73;;;8.23;;
3177;SDS011;38141;42.666;23.344;2024-03-06T13:04:14;22.10;;;11.03;;
3177;SDS011;38141;42.666;23.344;2024-03-06T13:06:41;15.27;;;7.80;;
3177;SDS011;38141;42.666;23.344;2024-03-06T13:09:10;18.17;;;9.80;;
3177;SDS011;38141;42.666;23.344;2024-03-06T13:11:37;16.17;;;9.40;;
3177;SDS011;38141;42.666;23.344;2024-03-06T13:14:07;13.70;;;8.40;;
3177;SDS011;38141;42.666;23.344;2024-03-06T13:16:37;13.10;;;7.20;;
3177;SDS011;38141;42.666;23.344;2024-03-06T13:19:07;12.07;;;7.70;;
3177;SDS011;38141;42.666;23.344;2024-03-06T13:21:36;9.57;;;6.80;;
3177;SDS011;38141;42.666;23.344;2024-03-06T13:24:04;13.17;;;6.80;;
3177;SDS011;38141;42.666;23.344;2024-03-06T13:26:31;9.60;;;6.37;;
3177;SDS011;38141;42.666;23.344;2024-03-06T13:28:58;11.03;;;6.27;;
3177;SDS011;38141;42.666;23.344;2024-03-06T13:31:29;8.83;;;5.80;;
3177;SDS011;38141;42.666;23.344;2024-03-06T13:34:04;10.00;;;6.47;;
3177;SDS011;38141;42.666;23.344;2024-03-06T13:36:36;8.90;;;6.70;;
3177;SDS011;38141;42.666;23.344;2024-03-06T13:39:03;9.33;;;5.87;;
3177;SDS011;38141;42.666;23.344;2024-03-06T13:41:30;8.03;;;6.13;;
3177;SDS011;38141;42.666;23.344;2024-03-06T13:43:57;8.47;;;6.00;;
3177;SDS011;38141;42.666;23.344;2024-03-06T13:46:27;7.87;;;6.30;;
3177;SDS011;38141;42.666;23.344;2024-03-06T13:48:54;13.53;;;6.77;;
3177;SDS011;38141;42.666;23.344;2024-03-06T13:51:24;9.53;;;6.77;;
3177;SDS011;38141;42.666;23.344;2024-03-06T13:53:54;10.00;;;6.33;;
3177;SDS011;38141;42.666;23.344;2024-03-06T13:56:21;11.63;;;6.47;;
3177;SDS011;38141;42.666;23.344;2024-03-06T13:58:48;10.70;;;6.50;;
3177;SDS011;38141;42.666;23.344;2024-03-06T14:01:16;12.73;;;6.27;;
3177;SDS011;38141;42.666;23.344;2024-03-06T14:03:43;10.13;;;7.63;;
3177;SDS011;38141;42.666;23.344;2024-03-06T14:06:10;10.40;;;6.47;;
3177;SDS011;38141;42.666;23.344;2024-03-06T14:08:39;12.83;;;7.40;;
3177;SDS011;38141;42.666;23.344;2024-03-06T14:11:11;11.53;;;6.80;;
3177;SDS011;38141;42.666;23.344;2024-03-06T14:13:44;11.50;;;6.33;;
3177;SDS011;38141;42.666;23.344;2024-03-06T14:16:11;11.87;;;7.00;;
3177;SDS011;38141;42.666;23.344;2024-03-06T14:18:41;8.77;;;5.93;;
3177;SDS011;38141;42.666;23.344;2024-03-06T14:21:08;20.50;;;13.93;;
3177;SDS011;38141;42.666;23.344;2024-03-06T14:23:40;24.40;;;12.60;;
3177;SDS011;38141;42.666;23.344;2024-03-06T14:26:10;11.30;;;6.80;;
3177;SDS011;38141;42.666;23.344;2024-03-06T14:28:37;15.13;;;7.43;;
3177;SDS011;38141;42.666;23.344;2024-03-06T14:31:05;12.77;;;7.03;;
3177;SDS011;38141;42.666;23.344;2024-03-06T14:33:32;16.60;;;6.77;;
3177;SDS011;38141;42.666;23.344;2024-03-06T14:36:02;11.37;;;7.30;;
3177;SDS011;38141;42.666;23.344;2024-03-06T14:38:30;8.70;;;6.70;;